Time;durP1;ratioP1;P1;durP2;ratioP2;P2;SDS_P1;SDS_P2;PMS_P1;PMS_P2;Temp;Humidity;BMP_temperature;BMP_pressure;BME280_temperature;BME280_humidity;BME280_pressure;Samples;Min_cycle;Max_cycle;Signal;HPM_P1;HPM_P2
2023/06/15 00:03:30;;;;;;;20.60;12.80;;;;;;;15.05;100.00;100333.90;186089;1231;45857;-55
2023/06/15 00:07:34;;;;;;;22.00;16.40;;;;;;;15.06;100.00;100330.52;186133;1231;57429;-55
2023/06/15 00:11:35;;;;;;;20.10;12.00;;;;;;;15.04;100.00;100323.61;186147;1231;43472;-55
2023/06/15 00:16:41;;;;;;;17.50;10.80;;;;;;;15.00;100.00;100323.77;186097;1231;43874;-54
2023/06/15 00:20:45;;;;;;;23.50;12.10;;;;;;;15.09;100.00;100323.95;186099;1231;45856;-54
2023/06/15 00:25:57;;;;;;;15.50;12.30;;;;;;;15.16;100.00;100326.75;186179;1230;43683;-55
2023/06/15 00:30:05;;;;;;;19.30;11.80;;;;;;;15.11;100.00;100324.14;186129;1231;59964;-54
2023/06/15 00:34:15;;;;;;;18.90;11.70;;;;;;;15.04;100.00;100323.10;186092;1231;44632;-55
2023/06/15 00:38:17;;;;;;;22.20;8.80;;;;;;;15.03;100.00;100328.67;186166;1231;44716;-55
2023/06/15 00:42:19;;;;;;;25.60;9.10;;;;;;;14.93;100.00;100328.36;185917;1231;46001;-55
2023/06/15 00:46:22;;;;;;;13.80;10.30;;;;;;;14.80;100.00;100327.61;186234;1231;43551;-55
2023/06/15 00:51:21;;;;;;;19.40;10.00;;;;;;;14.70;100.00;100324.77;186220;1231;58693;-55
2023/06/15 00:55:23;;;;;;;20.60;10.40;;;;;;;14.73;100.00;100319.33;186149;1231;43977;-55
2023/06/15 00:59:25;;;;;;;18.40;10.30;;;;;;;14.80;100.00;100319.85;186089;1231;45933;-55
2023/06/15 01:03:59;;;;;;;21.50;9.60;;;;;;;14.89;100.00;100321.79;186019;1231;44555;-55
2023/06/15 01:08:08;;;;;;;14.60;10.30;;;;;;;14.97;100.00;100323.02;185912;1231;43968;-55
2023/06/15 01:12:14;;;;;;;25.20;10.40;;;;;;;15.04;100.00;100315.06;186071;1231;58247;-55
2023/06/15 01:16:23;;;;;;;24.30;11.70;;;;;;;15.06;100.00;100315.89;186093;1234;43699;-55
2023/06/15 01:20:43;;;;;;;18.00;11.70;;;;;;;15.03;100.00;100310.33;185968;1231;43801;-55
2023/06/15 01:29:36;;;;;;;15.90;11.20;;;;;;;14.79;100.00;100309.63;186344;1230;45770;-55
2023/06/15 01:33:52;;;;;;;18.70;11.60;;;;;;;14.76;100.00;100312.45;186402;1231;58421;-55
2023/06/15 01:37:54;;;;;;;22.60;10.00;;;;;;;14.77;100.00;100311.61;186067;1231;45158;-54
2023/06/15 01:42:47;;;;;;;17.60;9.70;;;;;;;14.80;100.00;100309.56;185983;1231;43743;-52
2023/06/15 01:46:49;;;;;;;21.80;9.70;;;;;;;14.82;100.00;100313.13;186031;1231;45811;-55
2023/06/15 01:50:52;;;;;;;15.60;9.50;;;;;;;14.77;100.00;100320.55;185998;1231;44797;-55
2023/06/15 01:54:54;;;;;;;18.90;11.60;;;;;;;14.86;100.00;100316.64;186032;1231;57022;-55
2023/06/15 01:58:56;;;;;;;18.00;10.10;;;;;;;15.00;100.00;100320.96;185979;1231;45899;-55
2023/06/15 02:03:02;;;;;;;20.00;8.90;;;;;;;15.11;100.00;100318.40;186131;1231;43627;-55
2023/06/15 02:07:05;;;;;;;22.60;10.70;;;;;;;15.13;100.00;100319.42;186043;1231;43512;-53
2023/06/15 02:11:11;;;;;;;18.70;10.00;;;;;;;15.10;100.00;100316.38;186144;1231;43659;-55
2023/06/15 02:15:14;;;;;;;22.20;9.40;;;;;;;15.15;100.00;100312.67;186046;1231;57532;-55
2023/06/15 02:19:22;;;;;;;29.50;9.50;;;;;;;15.18;100.00;100308.61;186103;1230;43594;-55
2023/06/15 02:23:25;;;;;;;22.00;10.20;;;;;;;15.16;100.00;100305.06;186034;1231;43720;-55
2023/06/15 02:27:27;;;;;;;28.80;10.10;;;;;;;15.14;100.00;100308.49;186031;1231;44971;-55
2023/06/15 02:36:53;;;;;;;15.60;7.90;;;;;;;15.11;100.00;100308.59;185983;1230;60364;-55
2023/06/15 02:40:58;;;;;;;22.10;9.20;;;;;;;15.11;100.00;100310.23;186018;1231;44979;-55
2023/06/15 02:45:02;;;;;;;20.00;10.10;;;;;;;15.13;100.00;100306.23;186055;1231;45263;-55
2023/06/15 02:49:05;;;;;;;15.80;9.00;;;;;;;15.17;100.00;100303.61;185894;1231;44818;-56
2023/06/15 02:53:36;;;;;;;20.90;10.50;;;;;;;15.19;100.00;100304.20;185986;1231;45133;-57
2023/06/15 02:57:41;;;;;;;20.50;7.90;;;;;;;15.18;100.00;100308.11;186078;1231;58400;-56
2023/06/15 03:01:43;;;;;;;23.60;11.10;;;;;;;15.22;100.00;100304.59;186188;1230;44945;-56
2023/06/15 03:05:46;;;;;;;38.50;11.40;;;;;;;15.27;100.00;100306.20;186042;1230;46026;-56
2023/06/15 03:10:16;;;;;;;15.50;9.50;;;;;;;15.20;100.00;100307.36;186194;1230;43778;-55
2023/06/15 03:14:20;;;;;;;16.50;10.50;;;;;;;15.13;100.00;100310.38;186051;1231;44618;-56
2023/06/15 03:18:23;;;;;;;26.20;12.40;;;;;;;15.14;100.00;100316.50;186027;1231;57466;-56
2023/06/15 03:22:25;;;;;;;19.60;10.70;;;;;;;15.14;100.00;100321.91;186097;1231;43762;-56
2023/06/15 03:26:33;;;;;;;23.20;11.90;;;;;;;15.19;100.00;100320.11;185931;1231;43763;-56
2023/06/15 03:30:35;;;;;;;18.60;11.60;;;;;;;15.21;100.00;100314.34;186049;1231;43616;-56
2023/06/15 03:34:38;;;;;;;12.50;9.10;;;;;;;15.12;100.00;100318.67;185856;1235;43777;-55
2023/06/15 03:38:41;;;;;;;20.50;10.60;;;;;;;14.94;100.00;100324.91;186013;1232;58805;-56
2023/06/15 03:42:43;;;;;;;19.70;8.80;;;;;;;14.87;100.00;100328.30;186008;1231;45181;-56
2023/06/15 03:46:46;;;;;;;13.80;9.20;;;;;;;14.74;100.00;100329.95;186005;1231;44593;-56
2023/06/15 03:50:52;;;;;;;20.10;10.60;;;;;;;14.66;100.00;100330.52;185940;1234;45709;-56
2023/06/15 03:54:58;;;;;;;15.40;9.50;;;;;;;14.57;100.00;100327.45;185958;1230;43720;-56
2023/06/15 03:59:27;;;;;;;15.10;10.70;;;;;;;14.45;100.00;100331.86;185926;1231;58813;-56
2023/06/15 04:03:29;;;;;;;16.40;10.10;;;;;;;14.53;100.00;100329.51;185971;1231;44972;-56
2023/06/15 04:07:32;;;;;;;12.70;8.80;;;;;;;14.65;100.00;100326.73;186012;1231;44107;-56
2023/06/15 04:11:35;;;;;;;15.80;8.40;;;;;;;14.80;100.00;100323.48;185902;1231;43435;-56
2023/06/15 04:15:43;;;;;;;11.10;7.20;;;;;;;14.93;100.00;100322.15;185986;1231;46011;-56
2023/06/15 04:19:46;;;;;;;15.90;8.80;;;;;;;15.08;100.00;100322.69;186068;1231;57266;-56
2023/06/15 04:23:48;;;;;;;21.30;9.20;;;;;;;15.21;100.00;100324.91;186105;1231;44897;-56
2023/06/15 04:27:52;;;;;;;21.60;8.40;;;;;;;15.31;100.00;100322.69;186271;1231;45993;-57
2023/06/15 04:32:20;;;;;;;13.60;8.10;;;;;;;15.36;100.00;100327.20;186247;1231;44852;-56
2023/06/15 04:36:24;;;;;;;12.30;7.90;;;;;;;15.28;100.00;100329.09;186035;1231;44992;-57
2023/06/15 04:40:28;;;;;;;18.80;8.10;;;;;;;15.13;100.00;100333.92;185962;1230;59356;-57
2023/06/15 04:44:30;;;;;;;19.20;9.10;;;;;;;15.15;100.00;100331.43;185913;1231;43703;-56
2023/06/15 04:48:33;;;;;;;13.70;8.90;;;;;;;15.09;100.00;100335.07;185770;1231;43516;-58
2023/06/15 04:52:37;;;;;;;13.40;8.10;;;;;;;15.08;100.00;100331.80;185807;1231;45880;-59
2023/06/15 04:56:40;;;;;;;14.00;8.90;;;;;;;15.28;100.00;100325.97;185946;1231;44541;-58
2023/06/15 05:01:38;;;;;;;12.30;10.00;;;;;;;15.49;100.00;100326.77;185906;1231;59387;-59
2023/06/15 05:05:40;;;;;;;16.00;8.50;;;;;;;15.67;100.00;100331.36;185837;1231;43567;-59
2023/06/15 05:09:42;;;;;;;17.70;9.80;;;;;;;15.71;100.00;100339.23;185795;1231;43521;-59
2023/06/15 05:13:46;;;;;;;15.00;9.00;;;;;;;15.66;100.00;100340.61;185887;1231;43520;-59
2023/06/15 05:17:49;;;;;;;12.90;8.90;;;;;;;15.75;100.00;100338.59;185946;1231;45357;-59
2023/06/15 05:21:51;;;;;;;14.50;9.00;;;;;;;15.76;100.00;100339.94;185940;1231;58039;-59
2023/06/15 05:25:54;;;;;;;12.20;10.00;;;;;;;15.75;100.00;100345.20;185806;1231;44422;-59
2023/06/15 05:29:58;;;;;;;11.80;8.60;;;;;;;15.76;100.00;100348.71;185930;1231;43874;-59
2023/06/15 05:34:11;;;;;;;19.90;9.50;;;;;;;15.60;100.00;100356.80;178074;1231;10157444;-60
2023/06/15 05:38:13;;;;;;;16.80;9.70;;;;;;;15.65;100.00;100356.63;185860;1231;59113;-59
2023/06/15 05:42:21;;;;;;;13.00;9.10;;;;;;;15.83;100.00;100358.39;185939;1231;45977;-59
2023/06/15 05:46:23;;;;;;;13.20;9.30;;;;;;;16.05;100.00;100361.52;185887;1231;45111;-59
2023/06/15 05:50:25;;;;;;;15.90;11.50;;;;;;;16.25;100.00;100357.32;185946;1231;43611;-60
2023/06/15 05:54:29;;;;;;;20.00;11.00;;;;;;;16.77;100.00;100358.45;185980;1235;43758;-58
2023/06/15 05:58:32;;;;;;;17.40;10.30;;;;;;;17.46;100.00;100360.36;185697;1231;58514;-57
2023/06/15 06:02:35;;;;;;;15.90;9.10;;;;;;;18.05;100.00;100365.32;186022;1231;45908;-56
2023/06/15 06:06:37;;;;;;;12.90;8.40;;;;;;;18.39;99.74;100366.45;185728;1231;45926;-57
2023/06/15 06:10:43;;;;;;;;;;;;;;;18.51;99.24;100366.70;185802;1231;46057;-56
2023/06/15 06:14:51;;;;;;;14.90;9.90;;;;;;;18.41;98.66;100369.64;186056;1231;44726;-56
2023/06/15 06:18:53;;;;;;;13.80;9.60;;;;;;;18.36;99.24;100371.44;186267;1231;59272;-57
2023/06/15 06:22:56;;;;;;;12.40;9.20;;;;;;;18.28;99.45;100374.70;186178;1231;43447;-56
2023/06/15 06:26:58;;;;;;;10.80;7.30;;;;;;;18.29;100.00;100375.14;185998;1231;44906;-56
2023/06/15 06:31:00;;;;;;;9.70;7.90;;;;;;;18.30;100.00;100371.02;185965;1231;45861;-56
2023/06/15 06:35:31;;;;;;;11.70;7.80;;;;;;;18.31;99.91;100369.29;185919;1232;43702;-56
2023/06/15 06:39:33;;;;;;;11.50;7.70;;;;;;;18.45;99.85;100371.35;186032;1231;58885;-56
2023/06/15 06:43:35;;;;;;;11.40;9.40;;;;;;;18.56;99.92;100371.22;186000;1230;45018;-56
2023/06/15 06:47:37;;;;;;;7.90;6.70;;;;;;;18.62;99.71;100368.73;186039;1231;43654;-56
2023/06/15 06:51:39;;;;;;;9.20;6.30;;;;;;;18.63;98.76;100373.80;185998;1231;44861;-57
2023/06/15 07:01:27;;;;;;;7.30;6.20;;;;;;;18.61;96.08;100378.30;185998;1231;58781;-57
2023/06/15 07:05:30;;;;;;;13.10;7.40;;;;;;;18.55;95.95;100378.13;185783;1231;45159;-57
2023/06/15 07:09:32;;;;;;;8.90;5.80;;;;;;;18.58;97.73;100377.40;185978;1231;45876;-57
2023/06/15 07:13:34;;;;;;;9.20;6.00;;;;;;;18.60;95.83;100374.47;186001;1231;43527;-56
2023/06/15 07:17:44;;;;;;;7.90;6.10;;;;;;;18.56;94.48;100378.36;185841;1233;43518;-56
2023/06/15 07:21:48;;;;;;;7.00;5.10;;;;;;;18.59;96.35;100380.08;185894;1231;59161;-57
2023/06/15 07:25:53;;;;;;;9.20;5.70;;;;;;;18.60;97.22;100385.90;185887;1231;44712;-56
2023/06/15 07:30:05;;;;;;;19.60;6.40;;;;;;;18.57;96.62;100384.72;186002;1230;43447;-56
2023/06/15 07:34:27;;;;;;;7.20;5.50;;;;;;;18.58;96.82;100383.34;186789;1231;43603;-61
2023/06/15 07:43:27;;;;;;;6.10;5.50;;;;;;;18.54;97.18;100382.58;186084;1231;57936;-60
2023/06/15 07:47:34;;;;;;;7.70;5.20;;;;;;;18.56;95.94;100380.85;186603;1233;84895;-61
2023/06/15 07:51:37;;;;;;;6.90;6.20;;;;;;;18.57;96.63;100379.91;186523;1232;85216;-60
2023/06/15 07:55:57;;;;;;;4.60;3.60;;;;;;;18.52;97.23;100379.11;185801;1231;44904;-61
2023/06/15 08:00:04;;;;;;;6.30;5.20;;;;;;;18.60;98.70;100380.39;185775;1231;43644;-62
2023/06/15 08:04:10;;;;;;;7.60;5.70;;;;;;;18.66;99.29;100379.58;185399;1233;57280;-61
2023/06/15 08:08:11;;;;;;;4.90;3.90;;;;;;;18.67;99.70;100384.59;185334;1233;45970;-60
2023/06/15 08:12:21;;;;;;;6.00;5.40;;;;;;;18.70;99.96;100383.52;185484;1233;43757;-60
2023/06/15 08:16:23;;;;;;;5.50;4.90;;;;;;;18.83;99.74;100384.02;185472;1233;45848;-60
2023/06/15 08:20:26;;;;;;;9.50;7.50;;;;;;;18.99;98.54;100382.27;185630;1234;44029;-60
2023/06/15 08:24:28;;;;;;;7.80;5.70;;;;;;;19.10;95.51;100387.48;185764;1232;57800;-59
2023/06/15 08:28:32;;;;;;;11.80;6.10;;;;;;;19.12;95.10;100385.95;185676;1232;45936;-61
2023/06/15 08:32:57;;;;;;;6.80;6.10;;;;;;;19.15;92.97;100388.54;185766;1233;43566;-61
2023/06/15 08:36:58;;;;;;;8.50;7.40;;;;;;;19.16;92.77;100388.98;185683;1232;43457;-60
2023/06/15 08:41:01;;;;;;;6.20;5.60;;;;;;;19.18;90.99;100389.46;185460;1232;43764;-59
2023/06/15 08:45:07;;;;;;;12.00;6.90;;;;;;;19.16;90.72;100388.40;185495;1232;58544;-62
2023/06/15 08:49:40;;;;;;;7.50;6.30;;;;;;;19.19;91.37;100385.34;185634;1234;44933;-62
2023/06/15 08:53:45;;;;;;;8.00;6.90;;;;;;;19.25;93.08;100380.66;185879;1232;45939;-60
2023/06/15 08:57:47;;;;;;;8.00;6.10;;;;;;;19.39;94.05;100379.61;185949;1232;43893;-60
2023/06/15 09:01:53;;;;;;;7.20;6.10;;;;;;;19.43;90.99;100379.10;185798;1234;45212;-59
2023/06/15 09:05:54;;;;;;;8.00;7.10;;;;;;;19.38;91.22;100378.21;185539;1232;59172;-60
2023/06/15 09:10:20;;;;;;;5.90;5.40;;;;;;;19.36;94.67;100378.73;185953;1233;44180;-60
2023/06/15 09:14:22;;;;;;;9.50;7.20;;;;;;;19.34;93.68;100383.47;185660;1233;44046;-61
2023/06/15 09:18:27;;;;;;;7.70;7.00;;;;;;;19.41;92.59;100381.52;185891;1231;44100;31
2023/06/15 09:27:00;;;;;;;8.00;7.00;;;;;;;19.69;92.93;100372.67;186231;1235;58151;31
2023/06/15 09:31:12;;;;;;;12.00;7.30;;;;;;;19.88;91.02;100369.01;186391;1234;45784;31
2023/06/15 09:35:14;;;;;;;11.80;7.60;;;;;;;20.07;90.13;100361.96;186597;1233;44941;-85
2023/06/15 09:39:34;;;;;;;9.60;7.30;;;;;;;20.28;90.80;100363.02;186327;1233;85106;-62
2023/06/15 09:43:41;;;;;;;10.80;6.40;;;;;;;20.48;88.48;100359.27;185535;1234;44763;-62
2023/06/15 09:47:44;;;;;;;19.60;9.30;;;;;;;20.61;87.58;100352.77;185486;1233;58673;-62
2023/06/15 09:51:50;;;;;;;7.70;7.00;;;;;;;20.71;85.54;100349.94;185368;1234;45856;-62
2023/06/15 09:55:55;;;;;;;7.80;7.00;;;;;;;20.91;86.62;100347.16;185368;1234;44243;-62
2023/06/15 09:59:59;;;;;;;8.60;6.90;;;;;;;21.17;85.50;100342.97;185541;1235;43853;-63
2023/06/15 10:04:04;;;;;;;8.60;7.10;;;;;;;21.53;83.60;100339.42;185436;1233;43469;-63
2023/06/15 10:08:31;;;;;;;9.90;8.30;;;;;;;21.81;83.35;100335.43;185470;1234;58167;-63
2023/06/15 10:12:40;;;;;;;9.60;6.30;;;;;;;22.09;81.91;100335.13;185451;1237;43791;-63
2023/06/15 10:16:57;;;;;;;9.00;6.80;;;;;;;22.39;79.23;100337.97;185675;1234;45058;-62
2023/06/15 10:21:04;;;;;;;12.50;6.20;;;;;;;22.75;76.92;100332.59;185410;1237;44496;-59
2023/06/15 10:25:08;;;;;;;8.90;7.60;;;;;;;22.99;73.52;100332.79;185372;1234;45937;-59
2023/06/15 10:29:31;;;;;;;7.20;6.10;;;;;;;23.30;73.64;100327.14;185441;1234;58485;-62
2023/06/15 10:38:34;;;;;;;7.20;5.50;;;;;;;23.64;69.33;100323.08;185390;1234;44628;-62
2023/06/15 10:42:44;;;;;;;12.20;5.50;;;;;;;23.80;69.85;100319.86;185322;1234;45944;-61
2023/06/15 10:47:08;;;;;;;7.30;5.00;;;;;;;23.83;69.85;100317.19;185388;1233;43648;-61
2023/06/15 10:51:15;;;;;;;8.10;7.30;;;;;;;23.98;71.03;100311.96;185267;1235;58344;-61
2023/06/15 10:55:23;;;;;;;7.50;6.50;;;;;;;24.01;69.54;100306.27;185842;1234;44862;-63
2023/06/15 10:59:48;;;;;;;7.80;6.10;;;;;;;23.94;70.40;100306.08;185851;1234;43567;-61
2023/06/15 11:03:56;;;;;;;7.70;5.20;;;;;;;23.74;69.70;100298.08;185715;1234;43472;-62
2023/06/15 11:07:57;;;;;;;5.90;5.30;;;;;;;23.71;69.17;100296.33;185548;1234;44919;-61
2023/06/15 11:12:35;;;;;;;6.90;6.20;;;;;;;23.75;69.68;100289.88;185610;1233;58437;-61
2023/06/15 11:16:39;;;;;;;6.50;5.90;;;;;;;23.94;68.66;100289.28;185594;1234;44762;-61
2023/06/15 11:20:42;;;;;;;5.80;4.70;;;;;;;23.79;68.63;100289.32;185853;1234;46099;-60
2023/06/15 11:24:45;;;;;;;10.20;5.70;;;;;;;23.76;69.15;100290.39;185620;1234;43526;-60
2023/06/15 11:29:01;;;;;;;8.30;5.00;;;;;;;23.66;69.55;100290.48;185699;1234;43471;-60
2023/06/15 11:33:03;;;;;;;7.20;5.60;;;;;;;23.47;68.61;100289.02;185631;1234;59385;-61
2023/06/15 11:37:06;;;;;;;6.20;4.60;;;;;;;23.26;69.27;100289.58;185470;1234;45913;-61
2023/06/15 11:41:11;;;;;;;7.40;4.20;;;;;;;23.23;69.97;100289.90;185427;1234;43585;-62
2023/06/15 11:45:18;;;;;;;8.00;5.30;;;;;;;23.29;68.59;100286.48;185246;1237;45006;-61
2023/06/15 11:49:20;;;;;;;7.00;4.90;;;;;;;23.42;67.11;100283.35;185308;1234;46086;-60
2023/06/15 11:53:21;;;;;;;7.90;5.10;;;;;;;23.58;66.56;100283.23;185114;1233;58472;-61
2023/06/15 11:57:23;;;;;;;6.60;5.00;;;;;;;23.67;64.66;100278.41;185298;1233;45886;-60
2023/06/15 12:01:26;;;;;;;8.80;4.80;;;;;;;23.71;63.47;100277.90;185399;1234;46020;-60
2023/06/15 12:05:39;;;;;;;9.60;5.70;;;;;;;23.61;64.68;100271.41;185085;1234;45938;-61
2023/06/15 12:09:43;;;;;;;11.10;5.90;;;;;;;23.63;65.97;100263.43;185143;1234;43467;-61
2023/06/15 12:13:48;;;;;;;15.00;5.90;;;;;;;23.56;66.63;100261.64;185323;1235;59302;-61
2023/06/15 12:17:50;;;;;;;7.10;4.80;;;;;;;23.57;67.98;100262.24;185796;1234;44170;-61
2023/06/15 12:26:36;;;;;;;9.90;7.70;;;;;;;23.51;69.62;100261.95;187050;1234;43606;-61
2023/06/15 12:30:42;;;;;;;11.00;6.10;;;;;;;23.68;68.52;100263.33;186966;1234;43278;-60
2023/06/15 12:35:23;;;;;;;16.60;7.10;;;;;;;23.82;66.33;100255.84;186786;1234;58507;-60
2023/06/15 12:39:27;;;;;;;9.40;6.10;;;;;;;23.94;67.37;100247.32;186805;1233;43469;-60
2023/06/15 12:43:29;;;;;;;28.80;7.60;;;;;;;24.08;68.98;100242.27;187005;1234;42944;-63
2023/06/15 12:47:30;;;;;;;15.70;6.30;;;;;;;24.11;68.45;100241.38;187098;1234;42951;-62
2023/06/15 12:51:32;;;;;;;8.40;4.80;;;;;;;23.71;67.67;100244.72;187035;1234;42924;-64
2023/06/15 12:55:34;;;;;;;9.80;3.30;;;;;;;23.29;69.30;100249.20;186822;1235;58082;-64
2023/06/15 12:59:40;;;;;;;18.40;4.20;;;;;;;22.83;73.09;100253.70;186713;1234;43730;-65
2023/06/15 13:03:41;;;;;;;3.40;2.80;;;;;;;22.24;77.93;100256.50;187109;1234;43777;-66
2023/06/15 13:07:44;;;;;;;6.00;4.40;;;;;;;21.54;79.77;100253.16;187082;1234;42975;-65
2023/06/15 13:12:14;;;;;;;6.10;4.10;;;;;;;21.26;79.87;100248.11;187002;1234;43002;-65
2023/06/15 13:16:15;;;;;;;5.80;3.30;;;;;;;20.72;80.82;100241.38;186940;1238;59426;-65
2023/06/15 13:20:18;;;;;;;6.40;2.60;;;;;;;20.53;85.36;100241.61;186764;1234;43027;-64
2023/06/15 13:24:20;;;;;;;6.20;3.40;;;;;;;20.43;88.91;100241.84;187010;1234;42958;-65
2023/06/15 13:28:23;;;;;;;3.70;3.40;;;;;;;20.19;91.27;100248.08;186990;1234;43030;-64
2023/06/15 13:32:24;;;;;;;4.00;3.50;;;;;;;20.17;90.41;100244.39;186993;1234;43806;-63
2023/06/15 13:36:26;;;;;;;11.00;3.40;;;;;;;20.44;91.49;100242.69;187069;1233;59890;-64
2023/06/15 13:40:57;;;;;;;3.30;2.80;;;;;;;20.64;88.03;100245.42;187039;1234;43436;-67
2023/06/15 13:49:57;;;;;;;3.60;3.10;;;;;;;21.13;77.63;100236.92;186972;1234;43637;-60
2023/06/15 13:53:58;;;;;;;4.70;3.20;;;;;;;21.18;73.98;100238.98;186932;1234;43706;-59
2023/06/15 13:58:00;;;;;;;4.40;3.60;;;;;;;21.51;74.46;100236.76;186793;1234;57225;-60
2023/06/15 14:02:07;;;;;;;5.60;3.10;;;;;;;21.87;72.91;100236.65;186979;1234;42980;-62
2023/06/15 14:06:10;;;;;;;5.30;2.60;;;;;;;22.33;71.63;100233.39;186895;1234;43318;-59
2023/06/15 14:10:11;;;;;;;6.40;2.90;;;;;;;22.85;70.99;100223.75;186930;1234;43572;-61
2023/06/15 14:14:13;;;;;;;11.10;4.20;;;;;;;23.24;72.67;100220.36;186973;1234;43705;-59
2023/06/15 14:18:16;;;;;;;5.90;4.10;;;;;;;23.54;72.89;100219.14;186587;1234;58280;-58
2023/06/15 14:22:17;;;;;;;5.80;3.60;;;;;;;23.79;71.27;100224.02;186985;1234;43635;-59
2023/06/15 14:26:19;;;;;;;3.80;3.10;;;;;;;24.04;67.87;100221.55;187031;1234;43193;-59
2023/06/15 14:30:20;;;;;;;3.90;3.00;;;;;;;24.11;67.35;100214.88;187084;1234;43063;-59
2023/06/15 14:34:22;;;;;;;4.10;3.70;;;;;;;24.18;67.62;100215.26;186709;1234;42999;-59
2023/06/15 14:38:24;;;;;;;4.70;3.20;;;;;;;24.22;68.28;100214.53;186738;1234;58217;-58
2023/06/15 14:42:26;;;;;;;4.30;3.80;;;;;;;24.14;66.60;100211.31;187091;1234;42993;-59
2023/06/15 14:46:31;;;;;;;7.10;4.40;;;;;;;23.95;67.72;100208.95;186833;1234;43628;-60
2023/06/15 14:50:33;;;;;;;11.50;3.90;;;;;;;23.87;67.40;100200.30;186768;1234;43028;-59
2023/06/15 14:54:36;;;;;;;10.40;5.30;;;;;;;23.62;70.02;100203.63;186838;1234;42994;-59
2023/06/15 14:58:38;;;;;;;6.20;3.80;;;;;;;23.61;70.33;100198.27;186770;1235;58164;-59
2023/06/15 15:02:40;;;;;;;8.10;3.80;;;;;;;23.92;69.56;100188.54;187000;1234;43000;-59
2023/06/15 15:06:42;;;;;;;4.10;3.30;;;;;;;23.90;65.02;100188.66;186913;1234;43673;-58
2023/06/15 15:10:44;;;;;;;4.60;2.70;;;;;;;24.04;65.05;100188.92;186708;1234;43570;-60
2023/06/15 15:14:45;;;;;;;7.40;5.10;;;;;;;24.16;62.78;100185.99;186775;1234;43740;-59
2023/06/15 15:18:47;;;;;;;7.50;4.20;;;;;;;24.13;63.30;100185.80;187092;1234;59407;-60
2023/06/15 15:22:48;;;;;;;4.70;3.80;;;;;;;24.07;63.70;100183.93;187065;1234;43661;-59
2023/06/15 15:26:50;;;;;;;16.10;4.80;;;;;;;24.02;61.90;100179.27;187048;1234;42960;-60
2023/06/15 15:30:54;;;;;;;6.90;3.40;;;;;;;23.99;61.85;100176.85;187142;1234;42997;-58
2023/06/15 15:34:56;;;;;;;3.20;2.90;;;;;;;23.99;62.94;100172.72;187059;1234;43611;-57
2023/06/15 15:38:57;;;;;;;3.60;3.20;;;;;;;23.66;63.08;100179.15;187104;1234;58150;-59
2023/06/15 15:43:00;;;;;;;4.40;3.40;;;;;;;22.94;61.73;100180.44;186655;1236;43236;-59
2023/06/15 15:47:04;;;;;;;3.50;3.10;;;;;;;22.29;66.87;100185.14;187041;1234;43631;-58
2023/06/15 15:51:06;;;;;;;6.10;3.40;;;;;;;21.95;70.23;100188.86;187051;1234;43833;-60
2023/06/15 15:55:08;;;;;;;6.00;4.50;;;;;;;21.70;71.43;100187.70;187013;1234;43795;-59
2023/06/15 15:59:40;;;;;;;5.00;4.50;;;;;;;21.63;75.62;100184.10;187091;1235;57929;-61
2023/06/15 16:03:42;;;;;;;13.10;5.10;;;;;;;21.53;78.34;100177.89;187091;1235;43540;-58
2023/06/15 16:07:45;;;;;;;6.80;4.80;;;;;;;21.42;79.93;100174.66;186684;1234;43735;-58
2023/06/15 16:11:48;;;;;;;9.20;5.10;;;;;;;21.22;81.43;100169.27;186807;1235;42924;-60
2023/06/15 16:15:49;;;;;;;11.60;5.00;;;;;;;21.12;81.55;100168.13;187021;1235;43010;-60
2023/06/15 16:20:09;;;;;;;6.40;4.50;;;;;;;21.14;82.23;100173.18;187018;1235;58217;-58
2023/06/15 16:24:11;;;;;;;7.80;5.60;;;;;;;21.02;81.82;100180.71;187088;1235;43066;-60
2023/06/15 16:28:12;;;;;;;7.30;6.00;;;;;;;20.94;80.14;100183.86;187023;1235;42934;-58
2023/06/15 16:32:45;;;;;;;10.70;5.70;;;;;;;20.87;78.94;100184.90;186931;1235;42961;-60
2023/06/15 16:36:47;;;;;;;7.30;5.50;;;;;;;20.96;80.73;100190.78;187005;1235;42942;-60
2023/06/15 16:40:48;;;;;;;7.40;5.80;;;;;;;20.88;79.09;100193.25;187036;1235;59119;-58
2023/06/15 16:44:50;;;;;;;7.90;4.90;;;;;;;20.75;79.89;100190.05;187109;1235;42969;-62
2023/06/15 16:48:52;;;;;;;6.40;5.20;;;;;;;20.65;79.33;100193.71;187135;1234;42939;-59
2023/06/15 16:52:53;;;;;;;5.40;4.80;;;;;;;20.45;78.97;100190.91;187059;1235;43936;-60
2023/06/15 16:57:02;;;;;;;5.80;5.20;;;;;;;20.27;81.05;100195.02;187064;1235;42938;-59
2023/06/15 17:01:04;;;;;;;7.80;5.10;;;;;;;20.14;83.74;100195.80;186971;1234;59851;-60
2023/06/15 17:05:06;;;;;;;6.70;6.00;;;;;;;20.02;83.97;100196.37;187110;1235;43705;-60
2023/06/15 17:09:17;;;;;;;5.80;4.70;;;;;;;19.69;85.27;100195.95;187026;1235;43629;-60
2023/06/15 17:13:18;;;;;;;5.40;4.80;;;;;;;19.49;87.06;100196.30;186998;1236;43020;-59
2023/06/15 17:17:23;;;;;;;4.90;3.90;;;;;;;19.48;87.44;100192.29;187090;1234;42988;-60
2023/06/15 17:21:25;;;;;;;6.60;4.50;;;;;;;19.53;88.67;100185.50;187050;1235;59676;-60
2023/06/15 17:25:55;;;;;;;5.30;4.70;;;;;;;19.55;89.94;100189.23;187016;1235;43045;-60
2023/06/15 17:29:56;;;;;;;4.90;4.00;;;;;;;19.36;90.91;100191.38;187087;1235;43429;-59
2023/06/15 17:34:00;;;;;;;6.00;4.20;;;;;;;19.08;88.68;100195.16;186759;1235;322227;-59
2023/06/15 17:38:02;;;;;;;7.10;4.00;;;;;;;19.05;89.72;100198.64;186708;1235;43013;-59
2023/06/15 17:42:07;;;;;;;4.30;3.90;;;;;;;19.03;89.20;100194.27;186978;1235;58031;-62
2023/06/15 17:46:09;;;;;;;10.10;5.70;;;;;;;18.96;87.96;100193.98;187081;1235;43044;-58
2023/06/15 17:50:15;;;;;;;5.60;4.50;;;;;;;18.86;86.94;100196.11;187048;1235;42914;-60
2023/06/15 17:54:17;;;;;;;7.20;4.20;;;;;;;18.74;87.12;100195.95;186993;1234;43637;-64
2023/06/15 17:58:18;;;;;;;8.10;2.90;;;;;;;18.62;89.34;100201.80;186630;1235;42939;-61
2023/06/15 18:02:23;;;;;;;4.10;3.70;;;;;;;18.54;91.13;100199.86;187049;1235;58439;-60
2023/06/15 18:06:25;;;;;;;5.70;3.70;;;;;;;18.55;90.22;100195.52;187074;1235;43011;-62
2023/06/15 18:10:26;;;;;;;5.70;4.00;;;;;;;18.58;89.80;100191.91;187081;1235;42966;-62
2023/06/15 18:14:28;;;;;;;6.60;4.80;;;;;;;18.53;88.91;100192.95;187066;1235;43650;-62
2023/06/15 18:18:30;;;;;;;3.80;3.40;;;;;;;18.47;88.66;100193.08;186995;1235;43814;-63
2023/06/15 18:22:35;;;;;;;5.60;4.50;;;;;;;18.42;88.75;100191.80;187044;1235;59458;-63
2023/06/15 18:26:46;;;;;;;6.90;4.60;;;;;;;18.45;89.05;100199.92;187062;1234;43073;-63
2023/06/15 18:30:48;;;;;;;8.30;4.20;;;;;;;18.37;90.26;100197.97;186732;1235;42981;-62
2023/06/15 18:34:50;;;;;;;5.20;4.20;;;;;;;18.18;90.78;100196.00;186969;1234;43038;-63
2023/06/15 18:38:52;;;;;;;7.80;3.00;;;;;;;18.02;91.55;100202.30;186760;1235;42950;-65
2023/06/15 18:42:54;;;;;;;7.90;4.90;;;;;;;17.95;92.52;100205.26;187113;1234;59590;-62
2023/06/15 18:46:56;;;;;;;7.20;4.60;;;;;;;17.82;93.58;100209.15;187186;1235;43599;-64
2023/06/15 18:51:00;;;;;;;6.20;4.30;;;;;;;17.76;93.29;100209.15;187149;1235;43049;-62
2023/06/15 18:55:03;;;;;;;8.80;4.70;;;;;;;17.73;93.02;100209.73;187170;1235;43074;-64
2023/06/15 18:59:06;;;;;;;12.20;5.60;;;;;;;17.70;92.86;100208.55;186784;1235;43399;-64
2023/06/15 19:03:09;;;;;;;19.70;7.20;;;;;;;17.67;93.11;100210.35;187100;1235;58642;-62
2023/06/15 19:07:12;;;;;;;14.00;6.80;;;;;;;17.61;92.99;100213.95;187133;1235;43672;-63
2023/06/15 19:11:13;;;;;;;30.80;6.00;;;;;;;17.52;92.48;100213.98;186789;1234;42962;-62
2023/06/15 19:15:15;;;;;;;7.10;5.10;;;;;;;17.38;93.93;100221.04;187107;1234;43711;-65
2023/06/15 19:19:17;;;;;;;8.30;6.80;;;;;;;17.28;93.99;100223.79;187102;1235;43706;-58
2023/06/15 19:23:19;;;;;;;11.20;7.30;;;;;;;17.21;93.05;100225.08;186958;1235;58024;-58